Time;durP1;ratioP1;P1;durP2;ratioP2;P2;SDS_P1;SDS_P2;PMS_P1;PMS_P2;Temp;Humidity;BMP_temperature;BMP_pressure;BME280_temperature;BME280_humidity;BME280_pressure;Samples;Min_cycle;Max_cycle;Signal;HPM_P1;HPM_P2
2022/02/24 00:00:10;;;;;;;7.47;1.25;;;8.30;99.90;;;;;;4959227;28;20374;-78
2022/02/24 00:02:44;;;;;;;10.32;2.17;;;8.30;99.90;;;;;;4957509;28;20014;-77
2022/02/24 00:05:12;;;;;;;11.48;2.03;;;8.30;99.90;;;;;;4969374;28;20029;-77
2022/02/24 00:07:38;;;;;;;7.90;1.88;;;8.30;99.90;;;;;;4968780;28;20029;-76
2022/02/24 00:10:08;;;;;;;11.43;1.67;;;8.20;99.90;;;;;;4987426;28;20002;-76
2022/02/24 00:12:37;;;;;;;7.00;1.67;;;8.30;99.90;;;;;;4973541;28;20030;-76
2022/02/24 00:15:05;;;;;;;6.85;1.70;;;8.30;99.90;;;;;;4971614;28;20038;-77
2022/02/24 00:17:32;;;;;;;9.95;1.63;;;8.30;99.90;;;;;;4967858;28;20057;-76
2022/02/24 00:19:59;;;;;;;13.75;2.40;;;8.20;99.90;;;;;;4975174;28;20018;-77
2022/02/24 00:22:27;;;;;;;8.18;1.80;;;8.20;99.90;;;;;;4960764;28;20018;-77
2022/02/24 00:24:54;;;;;;;8.13;1.63;;;8.20;99.90;;;;;;4986223;28;20038;-77
2022/02/24 00:27:21;;;;;;;8.32;1.40;;;8.20;99.90;;;;;;4938401;28;20030;-77
2022/02/24 00:29:47;;;;;;;14.00;2.28;;;8.20;99.90;;;;;;4943472;28;20031;-77
2022/02/24 00:32:16;;;;;;;10.73;2.03;;;8.20;99.90;;;;;;4945577;28;20138;-77
2022/02/24 00:34:43;;;;;;;9.82;1.25;;;8.20;99.90;;;;;;4970884;28;20027;-77
2022/02/24 00:37:09;;;;;;;10.50;1.35;;;8.20;99.90;;;;;;4955471;28;20037;-76
2022/02/24 00:39:36;;;;;;;8.52;1.30;;;8.20;99.90;;;;;;4971596;28;20032;-77
2022/02/24 00:42:02;;;;;;;9.35;1.50;;;8.20;99.90;;;;;;4955929;28;20042;-77
2022/02/24 00:44:30;;;;;;;5.90;1.10;;;8.20;99.90;;;;;;4969239;28;20030;-77
2022/02/24 00:46:56;;;;;;;10.27;1.98;;;8.20;99.90;;;;;;4941467;28;20046;-77
2022/02/24 00:49:23;;;;;;;10.80;1.92;;;8.20;99.90;;;;;;4986656;28;20505;-77
2022/02/24 00:51:51;;;;;;;11.90;2.38;;;8.20;99.90;;;;;;4957090;28;20049;-77
2022/02/24 00:54:17;;;;;;;7.28;1.33;;;8.20;99.90;;;;;;4970891;28;20041;-77
2022/02/24 00:56:43;;;;;;;12.25;2.03;;;8.20;99.90;;;;;;4942785;28;20040;-77
2022/02/24 00:59:10;;;;;;;9.02;1.35;;;8.20;99.90;;;;;;4971574;28;20033;-77
2022/02/24 01:01:36;;;;;;;10.63;1.50;;;8.20;99.90;;;;;;4992247;28;20033;-77
2022/02/24 01:04:03;;;;;;;8.73;2.03;;;8.20;99.90;;;;;;4955125;28;20146;-76
2022/02/24 01:06:29;;;;;;;12.68;2.35;;;8.20;99.90;;;;;;4941736;28;20030;-77
2022/02/24 01:08:56;;;;;;;9.02;1.42;;;8.20;99.90;;;;;;4953765;28;20026;-76
2022/02/24 01:11:22;;;;;;;5.70;1.95;;;8.20;99.90;;;;;;4961213;28;20513;-77
2022/02/24 01:13:48;;;;;;;6.40;1.55;;;8.20;99.90;;;;;;4972880;28;20035;-77
2022/02/24 01:16:15;;;;;;;8.32;2.03;;;8.20;99.90;;;;;;4953243;28;20362;-77
2022/02/24 01:18:41;;;;;;;11.60;2.13;;;8.20;99.90;;;;;;4926777;28;20041;-77
2022/02/24 01:21:08;;;;;;;9.77;1.20;;;8.20;99.90;;;;;;4973365;28;20547;-77
2022/02/24 01:23:34;;;;;;;7.75;1.40;;;8.20;99.90;;;;;;4967039;28;20038;-77
2022/02/24 01:26:01;;;;;;;9.85;1.88;;;8.20;99.90;;;;;;4937678;28;20057;-77
2022/02/24 01:28:27;;;;;;;8.95;1.75;;;8.20;99.90;;;;;;4969587;28;20454;-77
2022/02/24 01:30:54;;;;;;;11.48;2.50;;;8.10;99.90;;;;;;4953384;28;20058;-77
2022/02/24 01:33:20;;;;;;;7.95;1.63;;;8.20;99.90;;;;;;4987939;28;20481;-77
2022/02/24 01:35:47;;;;;;;9.07;1.80;;;8.10;99.90;;;;;;4950463;28;20031;-77
2022/02/24 01:38:13;;;;;;;10.65;2.00;;;8.10;99.90;;;;;;4958086;28;20030;-77
2022/02/24 01:40:39;;;;;;;11.27;2.47;;;8.10;99.90;;;;;;4969204;28;20053;-77
2022/02/24 01:43:06;;;;;;;16.48;2.70;;;8.10;99.90;;;;;;4971351;28;20018;-77
2022/02/24 01:45:32;;;;;;;14.38;2.00;;;8.10;99.90;;;;;;4924595;28;20367;-77
2022/02/24 01:47:59;;;;;;;8.00;1.70;;;8.10;99.90;;;;;;4953448;28;20041;-77
2022/02/24 01:50:28;;;;;;;7.15;1.65;;;8.10;99.90;;;;;;4985258;28;20034;-77
2022/02/24 01:52:55;;;;;;;13.70;2.05;;;8.10;99.90;;;;;;4958437;28;20573;-77
2022/02/24 01:55:22;;;;;;;12.90;2.97;;;8.10;99.90;;;;;;4987485;28;20477;-77
2022/02/24 01:57:49;;;;;;;10.10;2.75;;;8.10;99.90;;;;;;4985699;28;20017;-78
2022/02/24 02:00:16;;;;;;;11.30;2.55;;;8.10;99.90;;;;;;4956358;28;20034;-77
2022/02/24 02:02:42;;;;;;;11.70;2.80;;;8.00;99.90;;;;;;4955302;28;20389;-77
2022/02/24 02:05:09;;;;;;;9.40;2.35;;;8.00;99.90;;;;;;4983887;28;20498;-77
2022/02/24 02:07:36;;;;;;;11.20;2.35;;;8.00;99.90;;;;;;4951982;28;20049;-79
2022/02/24 02:10:03;;;;;;;12.38;2.95;;;8.00;99.90;;;;;;4955453;28;20045;-78
2022/02/24 02:12:29;;;;;;;11.70;2.53;;;8.00;99.90;;;;;;4957344;28;20038;-79
2022/02/24 02:14:56;;;;;;;13.10;3.05;;;8.00;99.90;;;;;;4985111;28;20026;-78
2022/02/24 02:17:22;;;;;;;11.15;2.67;;;8.00;99.90;;;;;;4990681;28;20054;-79
2022/02/24 02:19:49;;;;;;;12.52;2.75;;;8.00;99.90;;;;;;4978793;28;20027;-78
2022/02/24 02:22:15;;;;;;;8.88;2.40;;;8.00;99.90;;;;;;4976577;28;20033;-78
2022/02/24 02:24:57;;;;;;;10.68;2.67;;;8.00;99.90;;;;;;4987234;28;20050;-77
2022/02/24 02:27:24;;;;;;;7.72;2.03;;;8.00;99.90;;;;;;4955678;28;20611;-77
2022/02/24 02:29:51;;;;;;;13.23;3.85;;;8.00;99.90;;;;;;4958464;28;20048;-77
2022/02/24 02:32:17;;;;;;;12.23;2.22;;;8.00;99.90;;;;;;4958974;28;20126;-77
2022/02/24 02:34:43;;;;;;;11.45;2.78;;;8.00;99.90;;;;;;4953251;28;21572;-77
2022/02/24 02:37:10;;;;;;;11.20;1.90;;;8.00;99.90;;;;;;4939426;28;20454;-78
2022/02/24 02:39:36;;;;;;;10.45;2.20;;;8.00;99.90;;;;;;4960841;28;20030;-78
2022/02/24 02:42:03;;;;;;;10.65;2.83;;;8.00;99.90;;;;;;4975692;28;20035;-76
2022/02/24 02:44:29;;;;;;;13.40;2.05;;;8.00;99.90;;;;;;4953100;28;20030;-77
2022/02/24 02:46:56;;;;;;;11.20;2.10;;;8.00;99.90;;;;;;4955546;28;20462;-76
2022/02/24 02:49:22;;;;;;;6.47;2.13;;;8.00;99.90;;;;;;4973896;28;20120;-76
2022/02/24 02:51:49;;;;;;;10.48;2.40;;;8.00;99.90;;;;;;4986624;28;20030;-77
2022/02/24 02:54:16;;;;;;;13.45;2.42;;;8.00;99.90;;;;;;4984274;28;20015;-78
2022/02/24 02:56:42;;;;;;;11.68;2.40;;;8.00;99.90;;;;;;4990383;28;20723;-78
2022/02/24 02:59:09;;;;;;;10.85;2.63;;;8.00;99.90;;;;;;4976438;28;20017;-79
2022/02/24 03:01:35;;;;;;;13.55;2.20;;;8.00;99.90;;;;;;4961048;28;20029;-78
2022/02/24 03:04:01;;;;;;;7.13;1.85;;;8.00;99.90;;;;;;4974744;28;20042;-78
2022/02/24 03:06:28;;;;;;;7.45;1.77;;;8.00;99.90;;;;;;4972868;28;20027;-78
2022/02/24 03:08:54;;;;;;;13.88;2.35;;;8.00;99.90;;;;;;4958533;28;20477;-78
2022/02/24 03:11:20;;;;;;;10.40;1.70;;;8.00;99.90;;;;;;4973123;28;20030;-79
2022/02/24 03:13:47;;;;;;;10.85;1.70;;;8.00;99.90;;;;;;4934976;28;20038;-79
2022/02/24 03:16:16;;;;;;;11.35;2.15;;;8.00;99.90;;;;;;4933853;28;20030;-78
2022/02/24 03:18:43;;;;;;;8.73;1.95;;;8.00;99.90;;;;;;4959193;28;20034;-78
2022/02/24 03:21:09;;;;;;;17.45;3.47;;;8.00;99.90;;;;;;4973957;28;20041;-77
2022/02/24 03:23:38;;;;;;;11.73;2.67;;;8.00;99.90;;;;;;4971745;28;20035;-79
2022/02/24 03:26:05;;;;;;;9.15;1.73;;;7.90;99.90;;;;;;4972184;28;20027;-79
2022/02/24 03:28:32;;;;;;;9.52;1.30;;;7.90;99.90;;;;;;4975727;28;20043;-78
2022/02/24 03:30:59;;;;;;;8.00;1.30;;;7.90;99.90;;;;;;4956803;28;20033;-79
2022/02/24 03:33:25;;;;;;;9.50;1.77;;;8.00;99.90;;;;;;4960772;28;20037;-77
2022/02/24 03:35:52;;;;;;;10.00;1.67;;;7.90;99.90;;;;;;4972527;28;20030;-79
2022/02/24 03:38:18;;;;;;;8.30;1.40;;;8.00;99.90;;;;;;4972317;28;20038;-79
2022/02/24 03:40:45;;;;;;;14.43;1.80;;;8.00;99.90;;;;;;4990645;28;20030;-79
2022/02/24 03:43:11;;;;;;;13.20;1.92;;;8.00;99.90;;;;;;4960391;28;20342;-78
2022/02/24 03:45:37;;;;;;;15.48;2.15;;;8.00;99.90;;;;;;4928113;28;20041;-78
2022/02/24 03:48:04;;;;;;;12.52;3.10;;;7.90;99.90;;;;;;4973665;28;20034;-78
2022/02/24 03:50:30;;;;;;;10.93;1.75;;;8.00;99.90;;;;;;4953737;28;20391;-78
2022/02/24 03:52:57;;;;;;;10.88;1.77;;;8.00;99.90;;;;;;4937657;28;20053;-79
2022/02/24 03:55:26;;;;;;;12.60;1.60;;;8.00;99.90;;;;;;4954773;28;20030;-79
2022/02/24 03:57:52;;;;;;;9.95;1.85;;;8.00;99.90;;;;;;4973325;28;20492;-79
2022/02/24 04:00:20;;;;;;;10.35;1.52;;;8.00;99.90;;;;;;4941364;28;20033;-79
2022/02/24 04:02:47;;;;;;;9.30;1.25;;;8.00;99.90;;;;;;4980399;28;20043;-79
2022/02/24 04:05:15;;;;;;;11.23;1.45;;;8.00;99.90;;;;;;4971626;28;20043;-79
2022/02/24 04:07:42;;;;;;;9.18;2.05;;;8.00;99.90;;;;;;4970252;28;20038;-79
2022/02/24 04:10:09;;;;;;;9.55;1.73;;;8.00;99.90;;;;;;4972936;28;20047;-79
2022/02/24 04:12:36;;;;;;;15.35;2.00;;;8.00;99.90;;;;;;4971582;28;20045;-79
2022/02/24 04:15:03;;;;;;;11.80;1.58;;;8.00;99.90;;;;;;4958451;28;20045;-78
2022/02/24 04:17:30;;;;;;;10.50;2.10;;;8.00;99.90;;;;;;4956929;28;20450;-79
2022/02/24 04:19:56;;;;;;;10.23;1.52;;;8.00;99.90;;;;;;4956961;28;20038;-78
2022/02/24 04:22:25;;;;;;;8.70;1.70;;;8.00;99.90;;;;;;4987228;28;20049;-79
2022/02/24 04:24:51;;;;;;;12.05;1.13;;;8.00;99.90;;;;;;4936288;28;20039;-78
2022/02/24 04:27:18;;;;;;;10.48;2.03;;;8.00;99.90;;;;;;4938887;28;20026;-79
2022/02/24 04:29:44;;;;;;;9.02;1.35;;;8.00;99.90;;;;;;4957394;28;20034;-78
2022/02/24 04:32:11;;;;;;;9.38;1.77;;;8.00;99.90;;;;;;4971303;28;20045;-79
2022/02/24 04:34:37;;;;;;;14.02;1.63;;;8.00;99.90;;;;;;4951637;28;20030;-79
2022/02/24 04:37:04;;;;;;;8.23;1.13;;;8.00;99.90;;;;;;4954996;28;20042;-78
2022/02/24 04:39:30;;;;;;;9.35;1.58;;;8.00;99.90;;;;;;4954999;28;20041;-79
2022/02/24 04:41:57;;;;;;;10.48;1.67;;;8.00;99.90;;;;;;4972401;28;20070;-78
2022/02/24 04:44:23;;;;;;;8.10;1.58;;;8.00;99.90;;;;;;4952161;28;20046;-79
2022/02/24 04:46:49;;;;;;;7.95;1.10;;;8.00;99.90;;;;;;4955334;28;20030;-79
2022/02/24 04:49:16;;;;;;;9.02;1.70;;;8.00;99.90;;;;;;4954267;28;20057;-78
2022/02/24 04:51:42;;;;;;;14.23;2.55;;;8.00;99.90;;;;;;4974095;28;20026;-78
2022/02/24 04:54:09;;;;;;;6.47;1.52;;;8.00;99.90;;;;;;4970158;28;20026;-79
2022/02/24 04:56:35;;;;;;;9.75;1.70;;;8.00;99.90;;;;;;4970268;28;20027;-78
2022/02/24 04:59:02;;;;;;;12.27;2.67;;;8.00;99.90;;;;;;4967567;28;20038;-78
2022/02/24 05:01:28;;;;;;;13.85;2.00;;;8.00;99.90;;;;;;4956097;28;20034;-79
2022/02/24 05:03:55;;;;;;;8.63;2.10;;;7.90;99.90;;;;;;4971098;28;20022;-78
2022/02/24 05:06:21;;;;;;;9.63;1.58;;;8.00;99.90;;;;;;4953692;28;20041;-78
2022/02/24 05:08:48;;;;;;;12.48;2.40;;;8.00;99.90;;;;;;4985583;28;20034;-78
2022/02/24 05:11:14;;;;;;;10.95;2.70;;;8.00;99.90;;;;;;4971829;28;20366;-78
2022/02/24 05:13:41;;;;;;;9.70;2.03;;;8.00;99.90;;;;;;4959477;28;20030;-77
2022/02/24 05:16:07;;;;;;;10.85;1.63;;;7.90;99.90;;;;;;4951830;28;20031;-77
2022/02/24 05:18:34;;;;;;;14.23;2.33;;;8.00;99.90;;;;;;4986508;28;20033;-78
2022/02/24 05:21:00;;;;;;;9.63;2.05;;;7.90;99.90;;;;;;4956981;28;20029;-76
2022/02/24 05:23:27;;;;;;;7.90;1.88;;;7.90;99.90;;;;;;4968644;28;20022;-76
2022/02/24 05:25:57;;;;;;;8.93;1.80;;;8.00;99.90;;;;;;4937715;28;20046;-80
2022/02/24 05:28:24;;;;;;;9.65;1.98;;;7.90;99.90;;;;;;4957025;28;20133;-79
2022/02/24 05:30:58;;;;;;;6.85;2.00;;;8.00;99.90;;;;;;4973244;28;20074;-78
2022/02/24 05:33:26;;;;;;;11.77;1.60;;;7.90;99.90;;;;;;4987125;28;20057;-80
2022/02/24 05:35:52;;;;;;;11.73;2.88;;;7.90;99.90;;;;;;4967007;28;20034;-79
2022/02/24 05:38:19;;;;;;;12.90;2.20;;;8.00;99.90;;;;;;4940932;28;20501;-79
2022/02/24 05:40:45;;;;;;;10.00;1.90;;;7.90;99.90;;;;;;4942217;28;20450;-78
2022/02/24 05:43:12;;;;;;;11.85;1.42;;;7.90;99.90;;;;;;4937903;28;20039;-76
2022/02/24 05:45:38;;;;;;;12.93;2.55;;;7.90;99.90;;;;;;4954229;28;20026;-76
2022/02/24 05:48:04;;;;;;;10.30;2.50;;;7.90;99.90;;;;;;4981623;28;20034;-76
2022/02/24 05:50:31;;;;;;;7.07;1.92;;;7.90;99.90;;;;;;4973309;28;20041;-76
2022/02/24 05:53:02;;;;;;;8.77;2.03;;;7.90;99.90;;;;;;4975451;28;20042;-77
2022/02/24 05:55:30;;;;;;;14.13;3.10;;;7.90;99.90;;;;;;4971295;28;20434;-76
2022/02/24 05:57:57;;;;;;;24.02;7.72;;;7.90;99.90;;;;;;4966977;28;20029;-77
2022/02/24 06:00:23;;;;;;;15.20;4.03;;;7.90;99.90;;;;;;4974381;28;20023;-76
2022/02/24 06:02:50;;;;;;;12.85;2.05;;;7.90;99.90;;;;;;4970266;28;20038;-78
2022/02/24 06:05:16;;;;;;;10.55;2.17;;;7.90;99.90;;;;;;4968380;28;20030;-79
2022/02/24 06:07:43;;;;;;;14.52;2.85;;;7.90;99.90;;;;;;4957744;28;20512;-78
2022/02/24 06:10:11;;;;;;;11.35;1.98;;;7.90;99.90;;;;;;4989818;28;20038;-79
2022/02/24 06:12:38;;;;;;;14.20;2.47;;;7.90;99.90;;;;;;4947133;28;20049;-78
2022/02/24 06:15:06;;;;;;;5.85;1.45;;;7.90;99.90;;;;;;4971748;28;21124;-78
2022/02/24 06:17:33;;;;;;;6.45;1.58;;;7.90;99.90;;;;;;4992897;28;20065;-78
2022/02/24 06:19:59;;;;;;;12.07;2.30;;;7.90;99.90;;;;;;4966232;28;20031;-78
2022/02/24 06:22:26;;;;;;;9.43;1.92;;;7.90;99.90;;;;;;4961133;28;20033;-77
2022/02/24 06:24:52;;;;;;;14.88;1.92;;;7.90;99.90;;;;;;4973061;28;20049;-77
2022/02/24 06:27:19;;;;;;;11.77;1.42;;;7.90;99.90;;;;;;4972763;28;20039;-78
2022/02/24 06:29:46;;;;;;;13.05;2.83;;;7.90;99.90;;;;;;4987874;28;20044;-78
2022/02/24 06:32:14;;;;;;;11.93;2.15;;;8.00;99.90;;;;;;4961777;28;20145;-76
2022/02/24 06:34:41;;;;;;;10.77;2.35;;;7.90;99.90;;;;;;4968669;28;20038;-76
2022/02/24 06:37:09;;;;;;;10.27;2.25;;;7.90;99.90;;;;;;4990764;28;20026;-76
2022/02/24 06:39:36;;;;;;;10.20;2.40;;;7.90;99.90;;;;;;4990382;28;20501;-76
2022/02/24 06:42:02;;;;;;;8.10;1.35;;;7.90;99.90;;;;;;4989364;28;20018;-76
2022/02/24 06:44:30;;;;;;;8.00;1.50;;;7.90;99.90;;;;;;4951694;28;20042;-76
2022/02/24 06:46:57;;;;;;;12.85;2.10;;;7.90;99.90;;;;;;4972271;28;20747;-76
2022/02/24 06:49:23;;;;;;;14.70;1.98;;;7.90;99.90;;;;;;4958995;28;20030;-76
2022/02/24 06:51:52;;;;;;;8.45;1.42;;;7.90;99.90;;;;;;4962409;28;20036;-76
2022/02/24 06:54:18;;;;;;;15.57;1.98;;;7.90;99.90;;;;;;4974867;28;20018;-76
2022/02/24 06:56:44;;;;;;;12.27;2.63;;;7.90;99.90;;;;;;4989294;28;20037;-78
2022/02/24 06:59:11;;;;;;;10.98;2.22;;;7.90;99.90;;;;;;4938713;28;20030;-77
2022/02/24 07:01:37;;;;;;;14.00;1.95;;;7.90;99.90;;;;;;4941759;28;20045;-78
2022/02/24 07:04:04;;;;;;;12.30;1.80;;;8.00;99.90;;;;;;4971678;28;20409;-79
2022/02/24 07:06:30;;;;;;;5.95;0.88;;;8.00;99.90;;;;;;4953156;28;20044;-78
2022/02/24 07:08:58;;;;;;;11.63;1.52;;;8.00;99.90;;;;;;4969428;28;20014;-77
2022/02/24 07:11:24;;;;;;;11.02;1.77;;;8.00;99.90;;;;;;4942115;28;20040;-78
2022/02/24 07:13:51;;;;;;;13.43;2.60;;;8.00;99.90;;;;;;4956667;28;20038;-77
2022/02/24 07:16:17;;;;;;;8.65;1.85;;;8.00;99.90;;;;;;4956456;28;20068;-78
2022/02/24 07:18:43;;;;;;;10.23;1.65;;;8.00;99.90;;;;;;4986098;28;20053;-77
2022/02/24 07:21:11;;;;;;;10.70;1.75;;;8.00;99.90;;;;;;4956309;28;20400;-80
2022/02/24 07:23:37;;;;;;;11.70;1.70;;;8.00;99.90;;;;;;4939901;28;20036;-82
2022/02/24 07:26:04;;;;;;;9.73;1.73;;;8.00;99.90;;;;;;4941200;28;20053;-81
2022/02/24 07:28:30;;;;;;;9.07;1.23;;;8.10;99.90;;;;;;4952986;28;20038;-81
2022/02/24 07:30:57;;;;;;;13.05;1.80;;;8.10;99.90;;;;;;4942751;28;20470;-82
2022/02/24 07:33:23;;;;;;;10.25;1.70;;;8.10;99.90;;;;;;4956725;28;20482;-81
2022/02/24 07:35:50;;;;;;;7.25;1.27;;;8.10;99.90;;;;;;4969645;28;20022;-81
2022/02/24 07:38:16;;;;;;;12.65;1.58;;;8.10;99.90;;;;;;4957645;28;20478;-81
2022/02/24 07:40:42;;;;;;;9.70;1.73;;;8.10;99.90;;;;;;4941329;28;20054;-79
2022/02/24 07:43:09;;;;;;;5.78;1.30;;;8.10;99.90;;;;;;4947968;28;20034;-80
2022/02/24 07:45:35;;;;;;;6.70;1.27;;;8.10;99.90;;;;;;4955756;28;20393;-81
2022/02/24 07:48:02;;;;;;;10.30;1.77;;;8.10;99.90;;;;;;4940251;28;20069;-81
2022/02/24 07:50:28;;;;;;;12.15;1.70;;;8.10;99.90;;;;;;4959230;28;20045;-81
2022/02/24 07:52:55;;;;;;;10.20;1.30;;;8.10;99.90;;;;;;4973790;28;20034;-82
2022/02/24 07:55:21;;;;;;;8.23;1.20;;;8.10;99.90;;;;;;4976200;28;20286;-82
2022/02/24 07:57:48;;;;;;;8.63;1.33;;;8.20;99.90;;;;;;4957860;28;20037;-82
2022/02/24 08:00:15;;;;;;;11.07;1.98;;;8.20;99.90;;;;;;4962622;28;20022;-83
2022/02/24 08:02:42;;;;;;;9.02;1.13;;;8.20;99.90;;;;;;4960749;28;20037;-82
2022/02/24 08:05:09;;;;;;;12.95;1.88;;;8.20;99.90;;;;;;4990864;28;20022;-82
2022/02/24 08:07:36;;;;;;;15.13;2.50;;;8.20;99.90;;;;;;4943209;28;20521;-82
2022/02/24 08:10:05;;;;;;;10.43;1.60;;;8.30;99.90;;;;;;4948514;28;20664;-82
2022/02/24 08:12:42;;;;;;;10.35;1.48;;;8.30;99.90;;;;;;4955102;28;20050;-82
2022/02/24 08:15:14;;;;;;;8.65;1.42;;;8.40;99.90;;;;;;4945685;28;20026;-82
2022/02/24 08:17:42;;;;;;;9.88;1.67;;;8.40;99.90;;;;;;4965349;28;20038;-83
2022/02/24 08:20:10;;;;;;;6.82;1.58;;;8.50;99.90;;;;;;4991160;28;20042;-82
2022/02/24 08:22:39;;;;;;;8.40;1.35;;;8.50;99.90;;;;;;4973071;28;20041;-82
2022/02/24 08:25:09;;;;;;;6.35;1.00;;;8.60;99.90;;;;;;4955752;28;20040;-82
2022/02/24 08:27:37;;;;;;;6.10;0.95;;;8.60;99.90;;;;;;4955940;28;20026;-82
2022/02/24 08:30:07;;;;;;;7.75;1.20;;;8.60;99.90;;;;;;4953730;28;20496;-82
2022/02/24 08:32:33;;;;;;;13.73;2.00;;;8.60;99.90;;;;;;4956561;28;20414;-82
2022/02/24 08:35:01;;;;;;;9.30;1.45;;;8.60;99.90;;;;;;4972596;28;20377;-82
2022/02/24 08:37:28;;;;;;;9.15;1.17;;;8.60;99.90;;;;;;4956724;28;20042;-82
2022/02/24 08:39:54;;;;;;;9.00;0.77;;;8.60;99.90;;;;;;4955372;28;20023;-82
2022/02/24 08:42:25;;;;;;;5.78;0.88;;;8.60;99.90;;;;;;4969815;28;20564;-82
2022/02/24 08:44:53;;;;;;;11.77;1.50;;;8.60;99.90;;;;;;4946309;28;20039;-82
2022/02/24 08:47:20;;;;;;;6.78;1.25;;;8.70;99.90;;;;;;4952166;28;20046;-82
2022/02/24 08:49:47;;;;;;;9.10;1.20;;;8.70;99.90;;;;;;4947820;28;20038;-82
2022/02/24 08:52:15;;;;;;;6.97;1.40;;;8.70;99.90;;;;;;4956459;28;20037;-82
2022/02/24 08:54:41;;;;;;;10.63;1.35;;;8.80;99.90;;;;;;4952504;28;20397;-82
2022/02/24 08:57:08;;;;;;;5.38;1.25;;;8.90;99.90;;;;;;4936335;28;20048;-81
2022/02/24 08:59:36;;;;;;;9.65;1.95;;;9.10;99.90;;;;;;4987454;28;20025;-82
2022/02/24 09:02:03;;;;;;;12.32;1.60;;;9.10;99.90;;;;;;4987217;28;20026;-82
2022/02/24 09:04:30;;;;;;;8.30;1.40;;;9.10;99.90;;;;;;4956385;28;20041;-82
2022/02/24 09:06:57;;;;;;;8.63;1.30;;;9.10;99.90;;;;;;4928949;28;20350;-82
2022/02/24 09:09:26;;;;;;;9.20;1.45;;;9.20;99.90;;;;;;4972849;28;20390;-82
2022/02/24 09:11:53;;;;;;;7.57;1.00;;;9.20;99.90;;;;;;4958745;28;20030;-82
2022/02/24 09:14:19;;;;;;;11.50;1.90;;;9.20;99.90;;;;;;4954795;28;20049;-82
2022/02/24 09:16:46;;;;;;;10.95;1.27;;;9.20;99.90;;;;;;4954959;28;20049;-83
2022/02/24 09:19:13;;;;;;;9.30;1.20;;;9.30;99.90;;;;;;4938508;28;20034;-82
2022/02/24 09:21:40;;;;;;;8.20;1.50;;;9.30;99.90;;;;;;4942620;28;20026;-82
2022/02/24 09:24:07;;;;;;;5.43;1.15;;;9.30;99.90;;;;;;4941543;28;20033;-82
2022/02/24 09:26:34;;;;;;;10.63;1.30;;;9.30;99.90;;;;;;4974768;28;20034;-82
2022/02/24 09:29:01;;;;;;;7.15;1.15;;;9.30;99.90;;;;;;4956751;28;20030;-82
2022/02/24 09:31:27;;;;;;;8.23;1.15;;;9.30;99.90;;;;;;4945361;28;20042;-82
2022/02/24 09:33:54;;;;;;;8.18;1.80;;;9.40;99.90;;;;;;4959532;28;20034;-82
2022/02/24 09:36:21;;;;;;;8.65;1.00;;;9.50;99.90;;;;;;4943202;28;20849;-82
2022/02/24 09:38:47;;;;;;;7.57;1.58;;;9.50;99.90;;;;;;4988572;28;20041;-81
2022/02/24 09:41:14;;;;;;;7.43;1.35;;;9.40;99.90;;;;;;4958581;28;20038;-82
2022/02/24 09:43:41;;;;;;;12.40;1.48;;;9.40;99.90;;;;;;4939906;28;20050;-83
2022/02/24 09:46:10;;;;;;;9.68;1.50;;;9.50;99.90;;;;;;4970185;28;20034;-84
2022/02/24 09:48:41;;;;;;;10.15;1.23;;;9.50;99.90;;;;;;4972125;28;20469;-84
2022/02/24 09:51:14;;;;;;;5.95;0.85;;;9.50;99.90;;;;;;4960188;28;20048;-83
2022/02/24 09:53:41;;;;;;;8.20;0.80;;;9.50;99.90;;;;;;4944348;28;20042;-83
2022/02/24 09:56:17;;;;;;;10.18;1.23;;;9.60;99.90;;;;;;4990206;28;20026;-83
2022/02/24 09:58:45;;;;;;;10.57;1.77;;;9.60;99.90;;;;;;4958670;28;20021;-83
2022/02/24 10:01:14;;;;;;;11.63;1.20;;;9.70;99.90;;;;;;4971760;28;20014;-83
2022/02/24 10:03:48;;;;;;;8.95;1.13;;;9.70;99.90;;;;;;4971086;28;20030;-83
2022/02/24 10:06:16;;;;;;;8.82;1.05;;;9.80;99.90;;;;;;4975559;28;20042;-83
2022/02/24 10:08:47;;;;;;;9.40;1.02;;;9.90;99.90;;;;;;4958387;28;20041;-83
2022/02/24 10:11:28;;;;;;;9.40;0.98;;;10.00;99.90;;;;;;4963162;28;20026;-83
2022/02/24 10:14:00;;;;;;;5.18;0.60;;;10.10;99.90;;;;;;4960660;28;20398;-83
2022/02/24 10:16:29;;;;;;;11.13;1.25;;;10.20;99.90;;;;;;4955509;28;20029;-83
2022/02/24 10:18:57;;;;;;;5.05;0.90;;;10.30;99.90;;;;;;4955332;28;20478;-83
2022/02/24 10:21:26;;;;;;;6.68;0.90;;;10.30;99.90;;;;;;4973455;28;20031;-83
2022/02/24 10:23:53;;;;;;;7.95;1.23;;;10.40;99.90;;;;;;4944237;28;20041;-83
2022/02/24 10:26:19;;;;;;;8.10;0.93;;;10.50;99.90;;;;;;4971320;28;20034;-83
2022/02/24 10:28:51;;;;;;;7.45;1.23;;;10.70;99.90;;;;;;4968722;28;20042;-83
2022/02/24 10:31:23;;;;;;;8.00;1.23;;;10.80;99.90;;;;;;4946851;28;20034;-83
2022/02/24 10:33:52;;;;;;;8.68;0.77;;;10.90;99.90;;;;;;4953686;28;20046;-83
2022/02/24 10:36:24;;;;;;;12.10;1.70;;;11.00;99.90;;;;;;4968403;28;20025;-83
2022/02/24 10:39:09;;;;;;;8.98;1.08;;;11.00;99.90;;;;;;4972107;28;20101;-83
2022/02/24 10:41:37;;;;;;;11.05;1.10;;;11.00;99.90;;;;;;4990399;28;20021;-83
2022/02/24 10:44:16;;;;;;;11.43;1.00;;;11.10;99.90;;;;;;4954444;28;20357;-83
2022/02/24 10:46:48;;;;;;;5.22;0.80;;;11.40;99.90;;;;;;4973117;28;20488;-83
2022/02/24 10:49:35;;;;;;;8.82;1.17;;;11.70;99.90;;;;;;4989275;28;20022;-84
2022/02/24 10:52:21;;;;;;;9.90;1.25;;;12.10;99.90;;;;;;4972229;28;20027;-83
2022/02/24 10:55:01;;;;;;;7.38;1.13;;;12.60;99.90;;;;;;4959074;28;20053;-83
2022/02/24 10:57:28;;;;;;;6.22;0.93;;;12.80;99.90;;;;;;4970618;28;20470;-84
2022/02/24 10:59:56;;;;;;;4.55;0.70;;;13.00;99.90;;;;;;4988962;28;20373;-83
2022/02/24 11:02:24;;;;;;;6.55;1.15;;;13.30;99.90;;;;;;4945184;28;20030;-83
2022/02/24 11:04:53;;;;;;;8.57;1.30;;;13.60;99.90;;;;;;4971200;28;20440;-84
2022/02/24 11:07:21;;;;;;;9.38;1.00;;;13.80;99.90;;;;;;4969534;28;21301;-83
2022/02/24 11:09:48;;;;;;;7.45;1.45;;;14.00;99.90;;;;;;4974106;28;20038;-83
2022/02/24 11:12:16;;;;;;;7.35;0.80;;;14.30;99.90;;;;;;4944987;28;20373;-84
2022/02/24 11:14:47;;;;;;;9.13;1.13;;;14.50;99.90;;;;;;4970865;28;20523;-83
2022/02/24 11:17:14;;;;;;;5.40;0.80;;;14.70;99.90;;;;;;4953442;28;20050;-83
2022/02/24 11:19:45;;;;;;;6.90;0.80;;;15.00;99.90;;;;;;4969332;28;20046;-83
2022/02/24 11:22:12;;;;;;;6.72;0.88;;;15.40;99.90;;;;;;4993710;28;20050;-84
2022/02/24 11:24:39;;;;;;;6.65;0.90;;;15.70;99.10;;;;;;4952981;28;20027;-83
2022/02/24 11:27:21;;;;;;;7.15;1.10;;;16.00;98.20;;;;;;4955493;28;20042;-81
2022/02/24 11:30:01;;;;;;;6.00;1.05;;;16.40;97.90;;;;;;4975976;28;20037;-81
2022/02/24 11:32:29;;;;;;;5.90;0.80;;;16.50;95.20;;;;;;4988247;28;20038;-81
2022/02/24 11:35:00;;;;;;;6.38;1.00;;;16.10;94.70;;;;;;4943346;28;20514;-81
2022/02/24 11:38:07;;;;;;;6.07;0.80;;;16.00;94.70;;;;;;4950919;28;20034;-81
2022/02/24 11:40:37;;;;;;;4.97;0.77;;;15.90;94.30;;;;;;4985784;28;20018;-81
2022/02/24 11:43:20;;;;;;;5.40;0.80;;;15.70;94.00;;;;;;4971960;28;20034;-81
2022/02/24 11:45:57;;;;;;;6.65;0.90;;;15.50;93.00;;;;;;4972563;28;20386;-83
2022/02/24 11:48:34;;;;;;;6.38;1.10;;;15.00;92.70;;;;;;4968332;28;20489;-82
2022/02/24 11:51:02;;;;;;;7.38;1.33;;;14.60;93.10;;;;;;4939606;28;20029;-82
2022/02/24 11:53:28;;;;;;;6.55;1.45;;;14.40;93.40;;;;;;4957489;28;20367;-82
2022/02/24 11:55:56;;;;;;;6.72;1.08;;;14.10;93.60;;;;;;4971470;28;20041;-81
2022/02/24 11:58:39;;;;;;;4.40;0.75;;;13.90;93.90;;;;;;4955582;28;20018;-81
2022/02/24 12:01:20;;;;;;;;;;;13.70;94.30;;;;;;4991808;28;20030;-81
2022/02/24 12:03:46;;;;;;;6.13;0.50;;;13.50;94.60;;;;;;4955033;28;19936;-81
2022/02/24 12:06:18;;;;;;;4.40;0.65;;;13.40;95.10;;;;;;4968138;28;20041;-80
2022/02/24 12:09:07;;;;;;;3.10;0.40;;;13.30;95.30;;;;;;4987113;28;21172;-78
2022/02/24 12:11:40;;;;;;;4.32;1.00;;;13.30;95.50;;;;;;4975274;28;20719;-77
2022/02/24 12:14:24;;;;;;;5.88;0.73;;;13.30;95.60;;;;;;4989021;28;20026;-77
2022/02/24 12:17:03;;;;;;;5.95;0.70;;;13.20;95.60;;;;;;4989790;28;20033;-81
2022/02/24 12:19:59;;;;;;;6.28;1.00;;;13.20;95.60;;;;;;4972371;28;20022;-81
2022/02/24 12:22:43;;;;;;;6.65;0.60;;;13.20;95.80;;;;;;4955160;28;20030;-81
2022/02/24 12:25:36;;;;;;;3.88;0.50;;;13.40;95.80;;;;;;4986812;28;20026;-81
2022/02/24 12:28:08;;;;;;;3.45;0.60;;;14.00;96.00;;;;;;4965265;28;20421;-81
2022/02/24 12:30:45;;;;;;;6.35;0.50;;;14.50;94.90;;;;;;4954044;28;20037;-81
2022/02/24 12:33:13;;;;;;;4.40;0.47;;;14.60;94.10;;;;;;4966668;28;20047;-81
2022/02/24 12:35:45;;;;;;;5.15;0.65;;;14.50;93.60;;;;;;4953977;28;20022;-81
2022/02/24 12:38:15;;;;;;;5.38;0.55;;;14.40;94.00;;;;;;4969839;28;20034;-81
2022/02/24 12:40:47;;;;;;;3.67;0.60;;;14.70;93.50;;;;;;4972327;28;20029;-81
2022/02/24 12:43:16;;;;;;;5.32;0.90;;;14.60;93.20;;;;;;4970526;28;20037;-81
2022/02/24 12:45:45;;;;;;;6.90;0.57;;;14.30;92.80;;;;;;4984724;28;20034;-81
2022/02/24 12:48:12;;;;;;;4.00;0.40;;;14.10;93.40;;;;;;4952864;28;20026;-81
2022/02/24 12:50:46;;;;;;;4.40;0.63;;;13.90;93.80;;;;;;4989305;28;20830;-81
2022/02/24 12:53:22;;;;;;;4.68;0.50;;;13.80;93.90;;;;;;4967742;28;20054;-81
2022/02/24 12:55:51;;;;;;;5.00;0.60;;;13.60;94.30;;;;;;4968917;28;20030;-81